トビリシ の空港の天気 - METARとTAF

トビリシ国際空港 ( UGTB / TBS ) - ジョージア トビリシ
飛行場実況気象(Metar)
観測時間08/04 23:00 GET (08/04 19:00 UTC)
風向・風速東北東 3m/s
視程10km以上
天気現象
なし
気温21℃
湿度64%
気圧1015hPa
METARUGTB 041900Z 06006KT CAVOK 21/14 Q1015 NOSIG
過去の天気等 Google飛行場航空写真 Wunderground天気予報

過去48時間のMETAR

飛行場予報(TAF)
発表時間: 8/04 21:00 GET (8/04 17:00 UTC)
予報対象時間: 4日22時 GET ~ 5日22時 GET
風向・風速不定 1m/s
視程10km以上
なし
5日2時 GET ~ 5日7時 GET に一時的に
全天の4割程度の積乱雲 雲底高度 1520m
TAF UGTB 041700Z 0418/0518 VRB02KT CAVOK TX29/0512Z TN19/0502Z
TEMPO 0422/0503 SCT050CB